sensor_id;sensor_type;location;lat;lon;timestamp;P1;durP1;ratioP1;P2;durP2;ratioP2
75400;SDS011;63974;47.538;18.972;2023-03-16T00:01:33;5.80;;;2.10;;
75400;SDS011;63974;47.538;18.972;2023-03-16T00:04:36;6.72;;;1.90;;
75400;SDS011;63974;47.538;18.972;2023-03-16T00:07:39;4.63;;;2.03;;
75400;SDS011;63974;47.538;18.972;2023-03-16T00:10:46;3.88;;;1.70;;
75400;SDS011;63974;47.538;18.972;2023-03-16T00:13:49;4.88;;;1.65;;
75400;SDS011;63974;47.538;18.972;2023-03-16T00:16:52;7.20;;;2.00;;
75400;SDS011;63974;47.538;18.972;2023-03-16T00:19:55;2.40;;;0.98;;
75400;SDS011;63974;47.538;18.972;2023-03-16T00:22:58;3.50;;;1.48;;
75400;SDS011;63974;47.538;18.972;2023-03-16T00:26:05;6.18;;;1.50;;
75400;SDS011;63974;47.538;18.972;2023-03-16T00:29:09;4.50;;;1.40;;
75400;SDS011;63974;47.538;18.972;2023-03-16T00:32:14;4.33;;;1.80;;
75400;SDS011;63974;47.538;18.972;2023-03-16T00:35:21;5.85;;;1.83;;
75400;SDS011;63974;47.538;18.972;2023-03-16T00:38:24;2.72;;;1.33;;
75400;SDS011;63974;47.538;18.972;2023-03-16T00:41:27;4.65;;;1.60;;
75400;SDS011;63974;47.538;18.972;2023-03-16T00:44:30;4.18;;;1.95;;
75400;SDS011;63974;47.538;18.972;2023-03-16T00:47:33;2.30;;;1.57;;
75400;SDS011;63974;47.538;18.972;2023-03-16T00:50:37;5.78;;;1.90;;
75400;SDS011;63974;47.538;18.972;2023-03-16T00:53:41;4.88;;;1.60;;
75400;SDS011;63974;47.538;18.972;2023-03-16T00:56:45;5.43;;;2.50;;
75400;SDS011;63974;47.538;18.972;2023-03-16T00:59:48;3.95;;;1.48;;
75400;SDS011;63974;47.538;18.972;2023-03-16T01:02:50;4.07;;;1.87;;
75400;SDS011;63974;47.538;18.972;2023-03-16T01:05:53;5.85;;;1.92;;
75400;SDS011;63974;47.538;18.972;2023-03-16T01:09:01;6.03;;;2.47;;
75400;SDS011;63974;47.538;18.972;2023-03-16T01:12:08;3.85;;;1.77;;
75400;SDS011;63974;47.538;18.972;2023-03-16T01:15:16;9.23;;;2.00;;
75400;SDS011;63974;47.538;18.972;2023-03-16T01:18:19;4.63;;;1.57;;
75400;SDS011;63974;47.538;18.972;2023-03-16T01:21:24;3.22;;;1.35;;
75400;SDS011;63974;47.538;18.972;2023-03-16T01:24:27;5.38;;;1.38;;
75400;SDS011;63974;47.538;18.972;2023-03-16T01:27:30;4.40;;;1.60;;
75400;SDS011;63974;47.538;18.972;2023-03-16T01:30:32;3.97;;;1.98;;
75400;SDS011;63974;47.538;18.972;2023-03-16T01:33:37;6.00;;;2.17;;
75400;SDS011;63974;47.538;18.972;2023-03-16T01:36:45;3.78;;;1.50;;
75400;SDS011;63974;47.538;18.972;2023-03-16T01:39:58;7.20;;;2.03;;
75400;SDS011;63974;47.538;18.972;2023-03-16T01:43:01;2.05;;;1.05;;
75400;SDS011;63974;47.538;18.972;2023-03-16T01:46:15;5.93;;;1.50;;
75400;SDS011;63974;47.538;18.972;2023-03-16T01:49:33;3.20;;;1.50;;
75400;SDS011;63974;47.538;18.972;2023-03-16T01:52:39;6.45;;;1.63;;
75400;SDS011;63974;47.538;18.972;2023-03-16T01:55:43;3.08;;;1.38;;
75400;SDS011;63974;47.538;18.972;2023-03-16T01:58:47;5.18;;;1.83;;
75400;SDS011;63974;47.538;18.972;2023-03-16T02:01:52;4.45;;;1.80;;
75400;SDS011;63974;47.538;18.972;2023-03-16T02:05:01;4.97;;;1.90;;
75400;SDS011;63974;47.538;18.972;2023-03-16T02:08:10;3.33;;;1.52;;
75400;SDS011;63974;47.538;18.972;2023-03-16T02:11:13;5.18;;;1.67;;
75400;SDS011;63974;47.538;18.972;2023-03-16T02:14:38;2.95;;;2.03;;
75400;SDS011;63974;47.538;18.972;2023-03-16T02:17:41;5.88;;;1.40;;
75400;SDS011;63974;47.538;18.972;2023-03-16T02:20:49;3.63;;;1.77;;
75400;SDS011;63974;47.538;18.972;2023-03-16T02:24:07;4.40;;;1.83;;
75400;SDS011;63974;47.538;18.972;2023-03-16T02:27:11;6.05;;;1.80;;
75400;SDS011;63974;47.538;18.972;2023-03-16T02:30:18;6.72;;;1.92;;
75400;SDS011;63974;47.538;18.972;2023-03-16T02:33:32;5.47;;;2.00;;
75400;SDS011;63974;47.538;18.972;2023-03-16T02:36:36;3.40;;;1.20;;
75400;SDS011;63974;47.538;18.972;2023-03-16T02:39:41;3.33;;;1.27;;
75400;SDS011;63974;47.538;18.972;2023-03-16T02:43:09;3.38;;;1.60;;
75400;SDS011;63974;47.538;18.972;2023-03-16T02:46:26;2.92;;;1.42;;
75400;SDS011;63974;47.538;18.972;2023-03-16T02:52:44;5.57;;;1.43;;
75400;SDS011;63974;47.538;18.972;2023-03-16T02:55:49;4.60;;;1.90;;
75400;SDS011;63974;47.538;18.972;2023-03-16T02:58:53;6.03;;;2.38;;
75400;SDS011;63974;47.538;18.972;2023-03-16T03:01:59;6.07;;;2.78;;
75400;SDS011;63974;47.538;18.972;2023-03-16T03:05:02;4.03;;;1.38;;
75400;SDS011;63974;47.538;18.972;2023-03-16T03:08:06;6.30;;;1.73;;
75400;SDS011;63974;47.538;18.972;2023-03-16T03:11:09;5.75;;;1.65;;
75400;SDS011;63974;47.538;18.972;2023-03-16T03:14:12;7.65;;;1.52;;
75400;SDS011;63974;47.538;18.972;2023-03-16T03:17:20;3.55;;;1.85;;
75400;SDS011;63974;47.538;18.972;2023-03-16T03:20:23;6.97;;;1.63;;
75400;SDS011;63974;47.538;18.972;2023-03-16T03:23:27;4.23;;;1.80;;
75400;SDS011;63974;47.538;18.972;2023-03-16T03:26:30;5.03;;;2.33;;
75400;SDS011;63974;47.538;18.972;2023-03-16T03:29:34;3.35;;;2.08;;
75400;SDS011;63974;47.538;18.972;2023-03-16T03:32:38;4.28;;;1.77;;
75400;SDS011;63974;47.538;18.972;2023-03-16T03:35:41;6.95;;;2.28;;
75400;SDS011;63974;47.538;18.972;2023-03-16T03:38:45;6.13;;;1.83;;
75400;SDS011;63974;47.538;18.972;2023-03-16T03:41:49;4.57;;;1.67;;
75400;SDS011;63974;47.538;18.972;2023-03-16T03:44:57;3.00;;;1.58;;
75400;SDS011;63974;47.538;18.972;2023-03-16T03:48:00;4.47;;;2.33;;
75400;SDS011;63974;47.538;18.972;2023-03-16T03:51:03;5.03;;;1.80;;
75400;SDS011;63974;47.538;18.972;2023-03-16T03:54:19;5.60;;;2.10;;
75400;SDS011;63974;47.538;18.972;2023-03-16T03:57:43;5.40;;;2.15;;
75400;SDS011;63974;47.538;18.972;2023-03-16T04:00:47;6.10;;;2.00;;
75400;SDS011;63974;47.538;18.972;2023-03-16T04:03:50;7.00;;;2.05;;
75400;SDS011;63974;47.538;18.972;2023-03-16T04:06:53;6.82;;;2.58;;
75400;SDS011;63974;47.538;18.972;2023-03-16T04:09:58;9.23;;;2.40;;
75400;SDS011;63974;47.538;18.972;2023-03-16T04:13:07;4.45;;;2.00;;
75400;SDS011;63974;47.538;18.972;2023-03-16T04:16:10;7.10;;;2.20;;
75400;SDS011;63974;47.538;18.972;2023-03-16T04:19:21;6.60;;;2.83;;
75400;SDS011;63974;47.538;18.972;2023-03-16T04:22:27;6.20;;;2.90;;
75400;SDS011;63974;47.538;18.972;2023-03-16T04:25:33;5.07;;;2.40;;
75400;SDS011;63974;47.538;18.972;2023-03-16T04:28:40;4.00;;;2.35;;
75400;SDS011;63974;47.538;18.972;2023-03-16T04:31:47;5.25;;;2.00;;
75400;SDS011;63974;47.538;18.972;2023-03-16T04:34:50;4.03;;;2.38;;
75400;SDS011;63974;47.538;18.972;2023-03-16T04:38:01;5.05;;;2.90;;
75400;SDS011;63974;47.538;18.972;2023-03-16T04:41:15;4.77;;;2.40;;
75400;SDS011;63974;47.538;18.972;2023-03-16T04:44:26;7.05;;;2.42;;
75400;SDS011;63974;47.538;18.972;2023-03-16T04:47:29;4.55;;;2.30;;
75400;SDS011;63974;47.538;18.972;2023-03-16T04:50:32;5.30;;;2.55;;
75400;SDS011;63974;47.538;18.972;2023-03-16T04:53:34;6.60;;;2.10;;
75400;SDS011;63974;47.538;18.972;2023-03-16T04:56:45;5.50;;;2.77;;
75400;SDS011;63974;47.538;18.972;2023-03-16T05:00:08;6.13;;;2.33;;
75400;SDS011;63974;47.538;18.972;2023-03-16T05:03:34;5.68;;;3.53;;
75400;SDS011;63974;47.538;18.972;2023-03-16T05:06:38;5.50;;;2.15;;
75400;SDS011;63974;47.538;18.972;2023-03-16T05:09:41;4.25;;;2.75;;
75400;SDS011;63974;47.538;18.972;2023-03-16T05:12:44;6.43;;;2.77;;
75400;SDS011;63974;47.538;18.972;2023-03-16T05:15:48;5.20;;;2.45;;
75400;SDS011;63974;47.538;18.972;2023-03-16T05:18:57;5.93;;;2.38;;
75400;SDS011;63974;47.538;18.972;2023-03-16T05:22:03;6.78;;;2.92;;
75400;SDS011;63974;47.538;18.972;2023-03-16T05:25:09;5.43;;;2.58;;
75400;SDS011;63974;47.538;18.972;2023-03-16T05:28:19;4.73;;;2.93;;
75400;SDS011;63974;47.538;18.972;2023-03-16T05:31:36;5.10;;;2.05;;
75400;SDS011;63974;47.538;18.972;2023-03-16T05:34:46;4.70;;;2.50;;
75400;SDS011;63974;47.538;18.972;2023-03-16T05:37:49;6.43;;;2.60;;
75400;SDS011;63974;47.538;18.972;2023-03-16T05:40:55;6.85;;;2.80;;
75400;SDS011;63974;47.538;18.972;2023-03-16T05:44:28;5.93;;;3.00;;
75400;SDS011;63974;47.538;18.972;2023-03-16T05:47:40;5.32;;;2.58;;
75400;SDS011;63974;47.538;18.972;2023-03-16T05:50:45;5.53;;;2.63;;
75400;SDS011;63974;47.538;18.972;2023-03-16T05:53:52;6.80;;;2.22;;
75400;SDS011;63974;47.538;18.972;2023-03-16T05:57:12;4.68;;;2.53;;
75400;SDS011;63974;47.538;18.972;2023-03-16T06:00:17;3.93;;;2.40;;
75400;SDS011;63974;47.538;18.972;2023-03-16T06:03:29;5.88;;;2.72;;
75400;SDS011;63974;47.538;18.972;2023-03-16T06:06:34;7.13;;;3.50;;
75400;SDS011;63974;47.538;18.972;2023-03-16T06:09:43;7.50;;;3.03;;
75400;SDS011;63974;47.538;18.972;2023-03-16T06:12:49;6.25;;;2.97;;
75400;SDS011;63974;47.538;18.972;2023-03-16T06:15:54;5.33;;;2.73;;
75400;SDS011;63974;47.538;18.972;2023-03-16T06:18:58;7.10;;;3.10;;
75400;SDS011;63974;47.538;18.972;2023-03-16T06:22:03;6.75;;;3.33;;
75400;SDS011;63974;47.538;18.972;2023-03-16T06:25:07;5.65;;;2.63;;
75400;SDS011;63974;47.538;18.972;2023-03-16T06:28:11;6.32;;;2.65;;
75400;SDS011;63974;47.538;18.972;2023-03-16T06:31:14;6.03;;;3.03;;
75400;SDS011;63974;47.538;18.972;2023-03-16T06:34:21;7.20;;;3.33;;
75400;SDS011;63974;47.538;18.972;2023-03-16T06:37:25;9.10;;;3.55;;
75400;SDS011;63974;47.538;18.972;2023-03-16T06:40:32;5.50;;;2.60;;
75400;SDS011;63974;47.538;18.972;2023-03-16T06:43:36;7.88;;;3.88;;
75400;SDS011;63974;47.538;18.972;2023-03-16T06:46:42;7.30;;;3.87;;
75400;SDS011;63974;47.538;18.972;2023-03-16T06:49:46;7.35;;;3.72;;
75400;SDS011;63974;47.538;18.972;2023-03-16T06:52:57;8.38;;;3.40;;
75400;SDS011;63974;47.538;18.972;2023-03-16T06:56:02;8.60;;;4.28;;
75400;SDS011;63974;47.538;18.972;2023-03-16T06:59:13;7.28;;;3.58;;
75400;SDS011;63974;47.538;18.972;2023-03-16T07:02:15;10.20;;;4.03;;
75400;SDS011;63974;47.538;18.972;2023-03-16T07:05:19;7.70;;;4.15;;
75400;SDS011;63974;47.538;18.972;2023-03-16T07:08:23;6.65;;;3.42;;
75400;SDS011;63974;47.538;18.972;2023-03-16T07:11:26;8.20;;;3.88;;
75400;SDS011;63974;47.538;18.972;2023-03-16T07:14:32;8.10;;;4.28;;
75400;SDS011;63974;47.538;18.972;2023-03-16T07:17:36;9.47;;;4.57;;
75400;SDS011;63974;47.538;18.972;2023-03-16T07:20:41;10.38;;;4.05;;
75400;SDS011;63974;47.538;18.972;2023-03-16T07:23:44;10.55;;;4.43;;
75400;SDS011;63974;47.538;18.972;2023-03-16T07:26:52;13.93;;;5.18;;
75400;SDS011;63974;47.538;18.972;2023-03-16T07:30:01;7.15;;;3.55;;
75400;SDS011;63974;47.538;18.972;2023-03-16T07:33:06;9.13;;;4.03;;
75400;SDS011;63974;47.538;18.972;2023-03-16T07:36:11;10.30;;;3.58;;
75400;SDS011;63974;47.538;18.972;2023-03-16T07:39:23;7.78;;;4.28;;
75400;SDS011;63974;47.538;18.972;2023-03-16T07:42:32;10.45;;;5.13;;
75400;SDS011;63974;47.538;18.972;2023-03-16T07:45:47;8.55;;;3.83;;
75400;SDS011;63974;47.538;18.972;2023-03-16T07:48:53;8.90;;;3.87;;
75400;SDS011;63974;47.538;18.972;2023-03-16T07:51:55;7.95;;;4.50;;
75400;SDS011;63974;47.538;18.972;2023-03-16T07:55:04;10.95;;;4.65;;
75400;SDS011;63974;47.538;18.972;2023-03-16T07:58:09;10.07;;;4.28;;
75400;SDS011;63974;47.538;18.972;2023-03-16T08:01:14;8.48;;;3.90;;
75400;SDS011;63974;47.538;18.972;2023-03-16T08:04:17;7.60;;;3.70;;
75400;SDS011;63974;47.538;18.972;2023-03-16T08:07:21;8.27;;;3.70;;
75400;SDS011;63974;47.538;18.972;2023-03-16T08:10:34;12.80;;;4.93;;
75400;SDS011;63974;47.538;18.972;2023-03-16T08:13:58;8.73;;;4.10;;
75400;SDS011;63974;47.538;18.972;2023-03-16T08:17:16;8.30;;;4.47;;
75400;SDS011;63974;47.538;18.972;2023-03-16T08:20:22;7.10;;;4.40;;
75400;SDS011;63974;47.538;18.972;2023-03-16T08:23:25;10.25;;;4.47;;
75400;SDS011;63974;47.538;18.972;2023-03-16T08:26:30;10.88;;;5.35;;
75400;SDS011;63974;47.538;18.972;2023-03-16T08:29:33;6.82;;;4.18;;
75400;SDS011;63974;47.538;18.972;2023-03-16T08:32:38;9.88;;;4.53;;
75400;SDS011;63974;47.538;18.972;2023-03-16T08:35:43;9.23;;;5.23;;
75400;SDS011;63974;47.538;18.972;2023-03-16T08:38:47;10.32;;;4.60;;
75400;SDS011;63974;47.538;18.972;2023-03-16T08:42:10;8.38;;;4.10;;
75400;SDS011;63974;47.538;18.972;2023-03-16T08:45:20;6.82;;;3.92;;
75400;SDS011;63974;47.538;18.972;2023-03-16T08:48:25;9.55;;;4.80;;
75400;SDS011;63974;47.538;18.972;2023-03-16T08:51:28;10.77;;;4.50;;
75400;SDS011;63974;47.538;18.972;2023-03-16T08:54:31;7.65;;;3.15;;
75400;SDS011;63974;47.538;18.972;2023-03-16T08:57:35;8.90;;;4.10;;
75400;SDS011;63974;47.538;18.972;2023-03-16T09:00:39;8.27;;;4.15;;
75400;SDS011;63974;47.538;18.972;2023-03-16T09:03:42;7.65;;;4.20;;
75400;SDS011;63974;47.538;18.972;2023-03-16T09:06:48;8.63;;;5.43;;
75400;SDS011;63974;47.538;18.972;2023-03-16T09:10:09;7.45;;;3.85;;
75400;SDS011;63974;47.538;18.972;2023-03-16T09:13:17;9.75;;;4.28;;
75400;SDS011;63974;47.538;18.972;2023-03-16T09:16:21;7.75;;;4.60;;
75400;SDS011;63974;47.538;18.972;2023-03-16T09:19:27;12.35;;;5.55;;
75400;SDS011;63974;47.538;18.972;2023-03-16T09:22:42;8.83;;;4.57;;
75400;SDS011;63974;47.538;18.972;2023-03-16T09:25:46;7.88;;;4.07;;
75400;SDS011;63974;47.538;18.972;2023-03-16T09:28:49;6.72;;;3.83;;
75400;SDS011;63974;47.538;18.972;2023-03-16T09:31:53;6.85;;;4.15;;
75400;SDS011;63974;47.538;18.972;2023-03-16T09:34:56;7.25;;;4.03;;
75400;SDS011;63974;47.538;18.972;2023-03-16T09:37:59;8.13;;;4.07;;
75400;SDS011;63974;47.538;18.972;2023-03-16T09:48:23;8.00;;;4.25;;
75400;SDS011;63974;47.538;18.972;2023-03-16T09:51:34;8.20;;;4.18;;
75400;SDS011;63974;47.538;18.972;2023-03-16T09:54:52;9.13;;;3.97;;
75400;SDS011;63974;47.538;18.972;2023-03-16T09:58:14;10.07;;;4.13;;
75400;SDS011;63974;47.538;18.972;2023-03-16T10:01:32;6.57;;;3.40;;
75400;SDS011;63974;47.538;18.972;2023-03-16T10:08:21;9.18;;;3.65;;
75400;SDS011;63974;47.538;18.972;2023-03-16T10:11:30;7.73;;;3.50;;
75400;SDS011;63974;47.538;18.972;2023-03-16T10:14:55;6.10;;;3.50;;
75400;SDS011;63974;47.538;18.972;2023-03-16T10:18:14;4.38;;;2.88;;
75400;SDS011;63974;47.538;18.972;2023-03-16T10:21:22;5.78;;;3.15;;
75400;SDS011;63974;47.538;18.972;2023-03-16T10:24:32;5.60;;;3.45;;
75400;SDS011;63974;47.538;18.972;2023-03-16T10:27:39;11.97;;;4.73;;
75400;SDS011;63974;47.538;18.972;2023-03-16T10:30:48;6.65;;;3.20;;
75400;SDS011;63974;47.538;18.972;2023-03-16T10:33:54;5.97;;;3.28;;
75400;SDS011;63974;47.538;18.972;2023-03-16T10:37:04;7.32;;;5.10;;
75400;SDS011;63974;47.538;18.972;2023-03-16T10:40:07;6.07;;;2.92;;
75400;SDS011;63974;47.538;18.972;2023-03-16T10:43:13;6.70;;;3.63;;
75400;SDS011;63974;47.538;18.972;2023-03-16T10:46:20;8.80;;;4.05;;
75400;SDS011;63974;47.538;18.972;2023-03-16T10:52:53;5.32;;;3.17;;
75400;SDS011;63974;47.538;18.972;2023-03-16T10:56:00;8.18;;;3.72;;
75400;SDS011;63974;47.538;18.972;2023-03-16T10:59:14;7.10;;;3.83;;
75400;SDS011;63974;47.538;18.972;2023-03-16T11:02:33;4.75;;;3.38;;
75400;SDS011;63974;47.538;18.972;2023-03-16T11:05:36;4.78;;;3.22;;
75400;SDS011;63974;47.538;18.972;2023-03-16T11:08:39;7.75;;;4.30;;
75400;SDS011;63974;47.538;18.972;2023-03-16T11:11:45;10.30;;;3.65;;
75400;SDS011;63974;47.538;18.972;2023-03-16T11:14:49;5.77;;;3.47;;
75400;SDS011;63974;47.538;18.972;2023-03-16T11:17:52;6.43;;;3.20;;
75400;SDS011;63974;47.538;18.972;2023-03-16T11:20:57;6.78;;;3.08;;
75400;SDS011;63974;47.538;18.972;2023-03-16T11:27:52;7.63;;;3.38;;
75400;SDS011;63974;47.538;18.972;2023-03-16T11:34:31;6.22;;;3.47;;
75400;SDS011;63974;47.538;18.972;2023-03-16T11:37:40;6.13;;;3.20;;
75400;SDS011;63974;47.538;18.972;2023-03-16T11:40:56;7.70;;;3.70;;
75400;SDS011;63974;47.538;18.972;2023-03-16T11:44:07;7.75;;;3.95;;
75400;SDS011;63974;47.538;18.972;2023-03-16T11:50:35;8.75;;;3.92;;
75400;SDS011;63974;47.538;18.972;2023-03-16T11:53:41;6.25;;;3.30;;
75400;SDS011;63974;47.538;18.972;2023-03-16T11:57:08;6.78;;;3.05;;
75400;SDS011;63974;47.538;18.972;2023-03-16T12:04:03;8.80;;;2.93;;
75400;SDS011;63974;47.538;18.972;2023-03-16T12:14:12;3.78;;;2.55;;
75400;SDS011;63974;47.538;18.972;2023-03-16T12:17:22;5.03;;;2.72;;
75400;SDS011;63974;47.538;18.972;2023-03-16T12:20:30;6.27;;;3.27;;
75400;SDS011;63974;47.538;18.972;2023-03-16T12:23:44;9.77;;;3.50;;
75400;SDS011;63974;47.538;18.972;2023-03-16T12:26:51;5.82;;;2.72;;
75400;SDS011;63974;47.538;18.972;2023-03-16T12:33:10;6.07;;;2.70;;
75400;SDS011;63974;47.538;18.972;2023-03-16T12:50:10;5.70;;;2.97;;
75400;SDS011;63974;47.538;18.972;2023-03-16T12:57:14;4.93;;;3.00;;
75400;SDS011;63974;47.538;18.972;2023-03-16T13:00:19;5.85;;;2.88;;
75400;SDS011;63974;47.538;18.972;2023-03-16T13:03:23;3.97;;;2.63;;
75400;SDS011;63974;47.538;18.972;2023-03-16T13:06:30;8.00;;;3.53;;
75400;SDS011;63974;47.538;18.972;2023-03-16T13:09:42;6.07;;;2.60;;
75400;SDS011;63974;47.538;18.972;2023-03-16T13:12:49;4.82;;;2.85;;
75400;SDS011;63974;47.538;18.972;2023-03-16T13:16:03;5.03;;;3.05;;
75400;SDS011;63974;47.538;18.972;2023-03-16T13:19:16;5.80;;;2.30;;
75400;SDS011;63974;47.538;18.972;2023-03-16T13:29:05;4.30;;;2.67;;
75400;SDS011;63974;47.538;18.972;2023-03-16T13:32:21;5.68;;;2.53;;
75400;SDS011;63974;47.538;18.972;2023-03-16T13:35:27;5.35;;;2.35;;
75400;SDS011;63974;47.538;18.972;2023-03-16T13:38:31;5.03;;;2.20;;
75400;SDS011;63974;47.538;18.972;2023-03-16T13:41:34;4.73;;;2.73;;
75400;SDS011;63974;47.538;18.972;2023-03-16T13:44:40;3.88;;;2.38;;
75400;SDS011;63974;47.538;18.972;2023-03-16T13:47:44;4.18;;;2.40;;
75400;SDS011;63974;47.538;18.972;2023-03-16T13:50:50;5.20;;;2.40;;
75400;SDS011;63974;47.538;18.972;2023-03-16T13:54:03;4.82;;;2.33;;
75400;SDS011;63974;47.538;18.972;2023-03-16T13:57:08;5.50;;;2.50;;
75400;SDS011;63974;47.538;18.972;2023-03-16T14:03:18;4.60;;;2.40;;
75400;SDS011;63974;47.538;18.972;2023-03-16T14:06:27;3.63;;;2.58;;
75400;SDS011;63974;47.538;18.972;2023-03-16T14:09:33;7.10;;;2.80;;
75400;SDS011;63974;47.538;18.972;2023-03-16T14:12:37;6.57;;;2.90;;
75400;SDS011;63974;47.538;18.972;2023-03-16T14:15:43;4.20;;;2.00;;
75400;SDS011;63974;47.538;18.972;2023-03-16T14:18:47;4.68;;;2.35;;
75400;SDS011;63974;47.538;18.972;2023-03-16T14:21:59;4.78;;;2.30;;
75400;SDS011;63974;47.538;18.972;2023-03-16T14:25:06;4.55;;;2.25;;
75400;SDS011;63974;47.538;18.972;2023-03-16T14:28:20;4.63;;;2.07;;
75400;SDS011;63974;47.538;18.972;2023-03-16T14:31:32;4.65;;;2.20;;
75400;SDS011;63974;47.538;18.972;2023-03-16T14:34:37;5.55;;;2.80;;
75400;SDS011;63974;47.538;18.972;2023-03-16T14:37:43;5.20;;;1.98;;
75400;SDS011;63974;47.538;18.972;2023-03-16T14:40:53;5.05;;;2.40;;
75400;SDS011;63974;47.538;18.972;2023-03-16T14:48:48;3.60;;;2.30;;
75400;SDS011;63974;47.538;18.972;2023-03-16T14:51:52;4.43;;;2.30;;
75400;SDS011;63974;47.538;18.972;2023-03-16T14:54:57;4.75;;;1.85;;
75400;SDS011;63974;47.538;18.972;2023-03-16T14:58:03;5.50;;;1.45;;
75400;SDS011;63974;47.538;18.972;2023-03-16T15:01:06;3.63;;;1.80;;
75400;SDS011;63974;47.538;18.972;2023-03-16T15:04:16;3.03;;;1.63;;
75400;SDS011;63974;47.538;18.972;2023-03-16T15:07:30;4.78;;;2.00;;
75400;SDS011;63974;47.538;18.972;2023-03-16T15:10:36;4.05;;;2.15;;
75400;SDS011;63974;47.538;18.972;2023-03-16T15:13:40;3.10;;;1.80;;
75400;SDS011;63974;47.538;18.972;2023-03-16T15:16:43;4.40;;;1.87;;
75400;SDS011;63974;47.538;18.972;2023-03-16T15:19:45;4.38;;;2.17;;
75400;SDS011;63974;47.538;18.972;2023-03-16T15:22:50;4.28;;;2.08;;
75400;SDS011;63974;47.538;18.972;2023-03-16T15:25:54;5.80;;;2.08;;
75400;SDS011;63974;47.538;18.972;2023-03-16T15:29:01;3.20;;;1.92;;
75400;SDS011;63974;47.538;18.972;2023-03-16T15:32:09;4.77;;;1.93;;
75400;SDS011;63974;47.538;18.972;2023-03-16T15:35:15;7.93;;;2.20;;
75400;SDS011;63974;47.538;18.972;2023-03-16T15:38:20;4.47;;;2.00;;
75400;SDS011;63974;47.538;18.972;2023-03-16T15:41:25;9.25;;;2.08;;
75400;SDS011;63974;47.538;18.972;2023-03-16T15:44:39;3.47;;;1.60;;
75400;SDS011;63974;47.538;18.972;2023-03-16T15:47:42;9.67;;;1.97;;
75400;SDS011;63974;47.538;18.972;2023-03-16T15:50:51;6.22;;;2.30;;
75400;SDS011;63974;47.538;18.972;2023-03-16T15:53:56;5.68;;;1.52;;
75400;SDS011;63974;47.538;18.972;2023-03-16T15:57:02;4.05;;;1.85;;
75400;SDS011;63974;47.538;18.972;2023-03-16T16:00:04;3.30;;;1.80;;
75400;SDS011;63974;47.538;18.972;2023-03-16T16:03:09;5.70;;;2.20;;
75400;SDS011;63974;47.538;18.972;2023-03-16T16:06:13;24.52;;;2.80;;
75400;SDS011;63974;47.538;18.972;2023-03-16T16:09:17;8.68;;;1.77;;
75400;SDS011;63974;47.538;18.972;2023-03-16T16:12:20;6.38;;;1.60;;
75400;SDS011;63974;47.538;18.972;2023-03-16T16:15:29;3.95;;;1.77;;
75400;SDS011;63974;47.538;18.972;2023-03-16T16:18:35;5.03;;;2.23;;
75400;SDS011;63974;47.538;18.972;2023-03-16T16:21:38;3.42;;;1.67;;
75400;SDS011;63974;47.538;18.972;2023-03-16T16:24:41;4.07;;;1.77;;
75400;SDS011;63974;47.538;18.972;2023-03-16T16:27:45;4.85;;;1.70;;
75400;SDS011;63974;47.538;18.972;2023-03-16T16:30:48;4.85;;;1.80;;
75400;SDS011;63974;47.538;18.972;2023-03-16T16:33:52;2.80;;;1.33;;
75400;SDS011;63974;47.538;18.972;2023-03-16T16:36:55;3.53;;;1.50;;
75400;SDS011;63974;47.538;18.972;2023-03-16T16:39:59;4.68;;;1.58;;
75400;SDS011;63974;47.538;18.972;2023-03-16T16:43:01;2.67;;;1.38;;
75400;SDS011;63974;47.538;18.972;2023-03-16T16:46:15;3.13;;;1.42;;
75400;SDS011;63974;47.538;18.972;2023-03-16T16:49:27;3.70;;;1.67;;
75400;SDS011;63974;47.538;18.972;2023-03-16T16:52:32;2.78;;;1.50;;
75400;SDS011;63974;47.538;18.972;2023-03-16T16:55:35;4.03;;;1.92;;
75400;SDS011;63974;47.538;18.972;2023-03-16T16:58:38;4.45;;;2.88;;
75400;SDS011;63974;47.538;18.972;2023-03-16T17:01:42;7.25;;;3.63;;
75400;SDS011;63974;47.538;18.972;2023-03-16T17:04:45;6.23;;;3.00;;
75400;SDS011;63974;47.538;18.972;2023-03-16T17:07:49;7.57;;;3.97;;
75400;SDS011;63974;47.538;18.972;2023-03-16T17:10:52;9.35;;;6.18;;
75400;SDS011;63974;47.538;18.972;2023-03-16T17:13:56;11.15;;;5.32;;
75400;SDS011;63974;47.538;18.972;2023-03-16T17:17:02;9.00;;;4.80;;
75400;SDS011;63974;47.538;18.972;2023-03-16T17:20:22;20.13;;;14.27;;
75400;SDS011;63974;47.538;18.972;2023-03-16T17:23:29;8.70;;;5.18;;
75400;SDS011;63974;47.538;18.972;2023-03-16T17:26:36;23.58;;;10.73;;
75400;SDS011;63974;47.538;18.972;2023-03-16T17:29:43;25.25;;;10.23;;
75400;SDS011;63974;47.538;18.972;2023-03-16T17:32:47;29.95;;;13.48;;
75400;SDS011;63974;47.538;18.972;2023-03-16T17:35:52;47.17;;;22.07;;
75400;SDS011;63974;47.538;18.972;2023-03-16T17:38:55;46.40;;;19.33;;
75400;SDS011;63974;47.538;18.972;2023-03-16T17:41:59;43.92;;;17.05;;
75400;SDS011;63974;47.538;18.972;2023-03-16T17:45:04;49.45;;;20.38;;
75400;SDS011;63974;47.538;18.972;2023-03-16T17:48:17;39.35;;;18.15;;
75400;SDS011;63974;47.538;18.972;2023-03-16T17:51:22;43.60;;;17.17;;
75400;SDS011;63974;47.538;18.972;2023-03-16T17:54:27;29.75;;;12.18;;
75400;SDS011;63974;47.538;18.972;2023-03-16T17:57:31;22.85;;;10.00;;
75400;SDS011;63974;47.538;18.972;2023-03-16T18:00:35;18.27;;;8.10;;
75400;SDS011;63974;47.538;18.972;2023-03-16T18:03:44;20.73;;;9.88;;
75400;SDS011;63974;47.538;18.972;2023-03-16T18:06:47;19.47;;;10.30;;
75400;SDS011;63974;47.538;18.972;2023-03-16T18:09:51;10.70;;;5.72;;
75400;SDS011;63974;47.538;18.972;2023-03-16T18:13:40;15.52;;;5.53;;
75400;SDS011;63974;47.538;18.972;2023-03-16T18:16:31;12.13;;;5.22;;
75400;SDS011;63974;47.538;18.972;2023-03-16T18:19:35;11.40;;;5.53;;
75400;SDS011;63974;47.538;18.972;2023-03-16T18:22:39;8.97;;;5.07;;
75400;SDS011;63974;47.538;18.972;2023-03-16T18:25:43;10.32;;;4.18;;
75400;SDS011;63974;47.538;18.972;2023-03-16T18:28:47;13.05;;;4.82;;
75400;SDS011;63974;47.538;18.972;2023-03-16T18:31:52;6.53;;;3.25;;
75400;SDS011;63974;47.538;18.972;2023-03-16T18:34:57;6.25;;;3.15;;
75400;SDS011;63974;47.538;18.972;2023-03-16T18:38:00;6.10;;;2.50;;
75400;SDS011;63974;47.538;18.972;2023-03-16T18:41:14;8.25;;;2.63;;
75400;SDS011;63974;47.538;18.972;2023-03-16T18:44:20;5.43;;;2.95;;
75400;SDS011;63974;47.538;18.972;2023-03-16T18:47:25;12.10;;;5.35;;
75400;SDS011;63974;47.538;18.972;2023-03-16T18:50:33;18.58;;;6.57;;
75400;SDS011;63974;47.538;18.972;2023-03-16T18:53:36;14.57;;;6.13;;
75400;SDS011;63974;47.538;18.972;2023-03-16T18:56:39;27.13;;;12.77;;
75400;SDS011;63974;47.538;18.972;2023-03-16T18:59:43;26.20;;;12.30;;
75400;SDS011;63974;47.538;18.972;2023-03-16T19:02:49;20.88;;;11.52;;
75400;SDS011;63974;47.538;18.972;2023-03-16T19:05:55;11.30;;;6.93;;
75400;SDS011;63974;47.538;18.972;2023-03-16T19:09:05;9.50;;;5.50;;
75400;SDS011;63974;47.538;18.972;2023-03-16T19:12:15;12.27;;;5.95;;
75400;SDS011;63974;47.538;18.972;2023-03-16T19:15:26;6.93;;;3.75;;
75400;SDS011;63974;47.538;18.972;2023-03-16T19:18:34;8.27;;;3.05;;
75400;SDS011;63974;47.538;18.972;2023-03-16T19:21:47;8.48;;;3.13;;
75400;SDS011;63974;47.538;18.972;2023-03-16T19:24:53;5.83;;;2.67;;
75400;SDS011;63974;47.538;18.972;2023-03-16T19:27:58;6.25;;;2.35;;
75400;SDS011;63974;47.538;18.972;2023-03-16T19:31:17;4.60;;;2.10;;
75400;SDS011;63974;47.538;18.972;2023-03-16T19:34:27;5.18;;;1.85;;
75400;SDS011;63974;47.538;18.972;2023-03-16T19:37:31;5.88;;;2.42;;
75400;SDS011;63974;47.538;18.972;2023-03-16T19:40:34;28.03;;;11.73;;